Time;durP1;ratioP1;P1;durP2;ratioP2;P2;SDS_P1;SDS_P2;PMS_P1;PMS_P2;Temp;Humidity;BMP_temperature;BMP_pressure;BME280_temperature;BME280_humidity;BME280_pressure;Samples;Min_cycle;Max_cycle;Signal;HPM_P1;HPM_P2
2023/07/16 00:01:48;;;;;;;;;;;;;;;14.95;49.57;95140.78;5038487;28;19929;-70
2023/07/16 00:04:13;;;;;;;;;;;;;;;14.40;50.56;95142.13;5039245;28;19929;-70
2023/07/16 00:06:38;;;;;;;;;;;;;;;14.23;51.04;95135.59;5039744;28;20304;-70
2023/07/16 00:09:04;;;;;;;;;;;;;;;13.69;52.83;95158.81;5039000;28;20393;-70
2023/07/16 00:11:29;;;;;;;;;;;;;;;14.49;50.84;95149.91;5040892;28;19955;-70
2023/07/16 00:13:54;;;;;;;;;;;;;;;13.95;51.91;95164.34;5039649;28;19939;-70
2023/07/16 00:16:19;;;;;;;;;;;;;;;13.87;52.53;95161.88;5038439;28;19986;-70
2023/07/16 00:18:44;;;;;;;;;;;;;;;14.42;51.22;95163.34;5039930;28;20118;-71
2023/07/16 00:21:10;;;;;;;;;;;;;;;14.10;52.07;95172.09;5039751;28;20148;-70
2023/07/16 00:23:35;;;;;;;;;;;;;;;14.69;50.88;95155.16;5040452;28;20441;-70
2023/07/16 00:26:00;;;;;;;;;;;;;;;14.77;50.54;95149.56;5040840;28;19920;-70
2023/07/16 00:28:26;;;;;;;;;;;;;;;14.33;51.71;95149.38;5039675;28;19927;-71
2023/07/16 00:30:51;;;;;;;;;;;;;;;14.62;51.26;95147.13;5040548;28;19959;-70
2023/07/16 00:33:16;;;;;;;;;;;;;;;13.63;53.95;95162.31;5040190;28;19920;-70
2023/07/16 00:35:49;;;;;;;;;;;;;;;13.22;55.49;95158.06;5040623;28;19921;-70
2023/07/16 00:38:14;;;;;;;;;;;;;;;13.57;55.08;95163.19;5037626;28;20614;-70
2023/07/16 00:40:39;;;;;;;;;;;;;;;14.06;53.54;95171.72;5039999;28;20012;-70
2023/07/16 00:43:04;;;;;;;;;;;;;;;13.83;54.78;95172.16;5040515;28;20417;-70
2023/07/16 00:45:30;;;;;;;;;;;;;;;13.97;54.18;95175.66;5039917;28;20373;-70
2023/07/16 00:47:55;;;;;;;;;;;;;;;13.94;54.44;95189.47;5039838;28;19927;-70
2023/07/16 00:50:20;;;;;;;;;;;;;;;13.11;56.60;95194.22;5040217;28;20306;-70
2023/07/16 00:52:46;;;;;;;;;;;;;;;13.59;55.66;95174.47;5050278;28;19953;-70
2023/07/16 00:55:11;;;;;;;;;;;;;;;13.85;54.84;95178.13;5055793;28;19916;-70
2023/07/16 00:57:37;;;;;;;;;;;;;;;13.86;54.80;95193.16;5048850;28;20012;-69
2023/07/16 01:00:03;;;;;;;;;;;;;;;13.81;54.75;95175.03;5036970;28;19955;-70
2023/07/16 01:02:28;;;;;;;;;;;;;;;14.28;53.58;95173.28;5037928;28;20008;-70
2023/07/16 01:04:54;;;;;;;;;;;;;;;14.65;52.41;95178.88;5039943;28;20378;-70
2023/07/16 01:07:19;;;;;;;;;;;;;;;14.40;53.16;95173.44;5040010;28;20190;-70
2023/07/16 01:09:44;;;;;;;;;;;;;;;13.79;55.14;95187.00;5055072;28;19959;-70
2023/07/16 01:12:09;;;;;;;;;;;;;;;14.69;52.88;95185.44;5039059;28;19955;-71
2023/07/16 01:14:35;;;;;;;;;;;;;;;14.46;53.33;95189.47;5038648;28;19988;-70
2023/07/16 01:17:06;;;;;;;;;;;;;;;15.27;51.13;95184.69;5038970;28;19924;-70
2023/07/16 01:19:32;;;;;;;;;;;;;;;14.66;52.83;95182.38;5039724;28;20335;-70
2023/07/16 01:22:06;;;;;;;;;;;;;;;15.20;51.16;95188.22;5055263;28;19999;-71
2023/07/16 01:24:50;;;;;;;;;;;;;;;15.12;51.23;95185.81;5039245;28;19954;-71
2023/07/16 01:27:27;;;;;;;;;;;;;;;15.32;50.89;95190.19;5039102;28;20416;-71
2023/07/16 01:30:02;;;;;;;;;;;;;;;15.48;50.28;95191.53;5039354;28;19928;-70
2023/07/16 01:32:28;;;;;;;;;;;;;;;15.46;50.64;95202.47;5039171;28;20016;-70
2023/07/16 01:34:53;;;;;;;;;;;;;;;15.42;50.50;95201.25;5039133;28;19916;-71
2023/07/16 01:37:18;;;;;;;;;;;;;;;15.31;51.05;95199.28;5054050;28;19924;-70
2023/07/16 01:39:44;;;;;;;;;;;;;;;15.78;49.83;95203.47;5053154;28;19947;-70
2023/07/16 01:42:09;;;;;;;;;;;;;;;15.20;51.27;95212.34;5037512;28;20321;-71
2023/07/16 01:44:34;;;;;;;;;;;;;;;15.95;49.13;95195.66;5039365;28;19916;-70
2023/07/16 01:47:08;;;;;;;;;;;;;;;16.09;49.03;95204.38;5039551;28;19982;-71
2023/07/16 01:49:33;;;;;;;;;;;;;;;15.27;50.99;95211.50;5033321;28;20003;-70
2023/07/16 01:51:59;;;;;;;;;;;;;;;15.58;50.27;95207.16;5035464;28;20119;-70
2023/07/16 01:54:24;;;;;;;;;;;;;;;14.52;53.17;95217.25;5046264;28;19919;-70
2023/07/16 01:56:49;;;;;;;;;;;;;;;15.07;51.91;95218.66;5037961;28;19929;-71
2023/07/16 01:59:15;;;;;;;;;;;;;;;14.93;52.36;95223.25;5035939;28;19966;-70
2023/07/16 02:01:40;;;;;;;;;;;;;;;15.23;51.14;95225.31;5038457;28;20602;-70
2023/07/16 02:04:05;;;;;;;;;;;;;;;15.24;51.16;95229.66;5037634;28;19928;-70
2023/07/16 02:06:30;;;;;;;;;;;;;;;15.40;50.85;95216.75;5038702;28;19917;-70
2023/07/16 02:08:56;;;;;;;;;;;;;;;14.91;52.17;95230.69;5036657;28;19971;-71
2023/07/16 02:11:21;;;;;;;;;;;;;;;14.42;53.95;95227.59;5038453;28;19975;-70
2023/07/16 02:13:46;;;;;;;;;;;;;;;14.93;52.49;95233.16;5037962;28;20408;-71
2023/07/16 02:16:11;;;;;;;;;;;;;;;14.32;54.32;95236.91;5052399;28;19920;-70
2023/07/16 02:18:37;;;;;;;;;;;;;;;14.55;53.62;95234.78;5038337;28;19967;-70
2023/07/16 02:21:02;;;;;;;;;;;;;;;14.36;54.10;95240.00;5036973;28;19997;-70
2023/07/16 02:23:27;;;;;;;;;;;;;;;14.56;53.38;95241.78;5036366;28;19952;-70
2023/07/16 02:25:52;;;;;;;;;;;;;;;14.10;54.24;95244.38;5038739;28;20294;-70
2023/07/16 02:28:18;;;;;;;;;;;;;;;13.17;57.56;95253.06;5037816;28;20022;-70
2023/07/16 02:30:43;;;;;;;;;;;;;;;14.44;54.06;95242.44;5038212;28;19964;-70
2023/07/16 02:33:08;;;;;;;;;;;;;;;15.06;52.23;95251.03;5038795;28;19920;-70
2023/07/16 02:35:33;;;;;;;;;;;;;;;15.01;52.28;95253.53;5037446;28;19920;-70
2023/07/16 02:37:59;;;;;;;;;;;;;;;15.05;52.07;95252.03;5035730;28;20126;-70
2023/07/16 02:40:24;;;;;;;;;;;;;;;15.06;51.98;95259.88;5036264;28;19921;-70
2023/07/16 02:42:49;;;;;;;;;;;;;;;14.13;54.33;95262.69;5037545;28;20011;-70
2023/07/16 02:45:14;;;;;;;;;;;;;;;14.52;53.38;95262.78;5038353;28;19952;-70
2023/07/16 02:47:40;;;;;;;;;;;;;;;14.39;53.59;95271.72;5036853;28;20429;-70
2023/07/16 02:50:05;;;;;;;;;;;;;;;14.67;52.57;95270.56;5038066;28;19999;-70
2023/07/16 02:52:30;;;;;;;;;;;;;;;14.49;53.02;95263.22;5034018;28;19928;-71
2023/07/16 02:54:56;;;;;;;;;;;;;;;14.51;52.93;95269.19;5052042;28;20016;-70
2023/07/16 02:57:21;;;;;;;;;;;;;;;14.42;53.16;95276.63;5037720;28;19921;-70
2023/07/16 02:59:46;;;;;;;;;;;;;;;13.83;54.61;95268.47;5037845;28;19921;-70
2023/07/16 03:02:12;;;;;;;;;;;;;;;13.13;56.98;95278.50;5036998;28;19924;-70
2023/07/16 03:04:37;;;;;;;;;;;;;;;13.28;56.75;95280.19;5036559;28;20441;-70
2023/07/16 03:07:02;;;;;;;;;;;;;;;13.45;56.10;95285.97;5037161;28;20210;-71
2023/07/16 03:09:27;;;;;;;;;;;;;;;13.36;56.10;95289.88;5037781;28;19921;-71
2023/07/16 03:11:53;;;;;;;;;;;;;;;13.33;56.65;95291.13;5038105;28;19917;-70
2023/07/16 03:14:18;;;;;;;;;;;;;;;13.20;56.85;95291.91;5038543;28;19951;-71
2023/07/16 03:16:43;;;;;;;;;;;;;;;13.39;56.44;95289.44;5036013;28;19925;-70
2023/07/16 03:19:08;;;;;;;;;;;;;;;13.62;55.35;95288.22;5037269;28;20100;-70
2023/07/16 03:21:34;;;;;;;;;;;;;;;13.15;56.69;95300.53;5036784;28;19933;-70
2023/07/16 03:23:59;;;;;;;;;;;;;;;12.97;57.90;95301.06;5051281;28;20389;-70
2023/07/16 03:26:24;;;;;;;;;;;;;;;12.84;57.95;95314.38;5040740;28;19940;-71
2023/07/16 03:28:49;;;;;;;;;;;;;;;12.52;59.08;95309.53;5041236;28;19955;-70
2023/07/16 03:31:15;;;;;;;;;;;;;;;12.65;58.45;95308.78;5056559;28;19939;-70
2023/07/16 03:33:40;;;;;;;;;;;;;;;12.53;58.76;95313.84;5041021;28;19966;-70
2023/07/16 03:36:06;;;;;;;;;;;;;;;12.58;58.20;95311.38;5041392;28;20015;-70
2023/07/16 03:38:31;;;;;;;;;;;;;;;12.88;57.45;95305.75;5041174;28;19936;-70
2023/07/16 03:40:56;;;;;;;;;;;;;;;12.21;59.23;95324.13;5041109;28;19928;-71
2023/07/16 03:43:22;;;;;;;;;;;;;;;11.89;60.50;95317.31;5041810;28;19957;-70
2023/07/16 03:45:47;;;;;;;;;;;;;;;12.17;59.35;95321.00;5056095;28;19972;-70
2023/07/16 03:48:12;;;;;;;;;;;;;;;11.99;60.41;95311.66;5041216;28;19990;-70
2023/07/16 03:50:37;;;;;;;;;;;;;;;12.24;59.56;95307.75;5056322;28;19913;-70
2023/07/16 03:53:03;;;;;;;;;;;;;;;12.20;59.28;95311.81;5035122;28;20491;-70
2023/07/16 03:55:28;;;;;;;;;;;;;;;12.53;58.48;95306.66;5037097;28;19972;-70
2023/07/16 03:57:54;;;;;;;;;;;;;;;12.05;59.53;95318.06;5034344;28;19963;-70
2023/07/16 04:00:19;;;;;;;;;;;;;;;11.94;59.70;95306.09;5041500;28;19960;-70
2023/07/16 04:02:44;;;;;;;;;;;;;;;12.24;58.96;95315.75;5038968;28;20341;-70
2023/07/16 04:05:10;;;;;;;;;;;;;;;12.22;59.38;95317.78;5039693;28;19961;-70
2023/07/16 04:07:35;;;;;;;;;;;;;;;11.93;60.49;95319.59;5039829;28;19935;-70
2023/07/16 04:10:00;;;;;;;;;;;;;;;11.97;59.87;95319.00;5040290;28;20021;-70
2023/07/16 04:12:25;;;;;;;;;;;;;;;11.98;59.91;95318.00;5055224;28;20278;-70
2023/07/16 04:14:54;;;;;;;;;;;;;;;11.79;59.95;95337.34;5039320;28;19986;-71
2023/07/16 04:17:19;;;;;;;;;;;;;;;11.69;60.95;95330.50;5053936;28;19964;-69
2023/07/16 04:19:45;;;;;;;;;;;;;;;11.57;60.83;95322.19;5039867;28;19935;-70
2023/07/16 04:22:10;;;;;;;;;;;;;;;11.49;61.47;95325.81;5040914;28;20020;-70
2023/07/16 04:24:35;;;;;;;;;;;;;;;11.47;61.17;95330.53;5039807;28;19956;-70
2023/07/16 04:27:00;;;;;;;;;;;;;;;11.13;62.00;95334.69;5039128;28;19939;-71
2023/07/16 04:29:25;;;;;;;;;;;;;;;10.92;62.66;95335.44;5054423;28;19971;-69
2023/07/16 04:31:51;;;;;;;;;;;;;;;11.81;60.06;95336.13;5053953;28;21620;-70
2023/07/16 04:34:16;;;;;;;;;;;;;;;11.86;59.25;95347.03;5040778;28;20410;-70
2023/07/16 04:36:44;;;;;;;;;;;;;;;11.10;61.51;95353.69;5038212;28;19957;-70
2023/07/16 04:39:09;;;;;;;;;;;;;;;11.46;60.05;95347.50;5037452;28;19957;-70
2023/07/16 04:41:35;;;;;;;;;;;;;;;11.46;60.08;95344.03;5039784;28;20035;-70
2023/07/16 04:44:00;;;;;;;;;;;;;;;11.02;61.31;95343.13;5039088;28;19959;-70
2023/07/16 04:46:25;;;;;;;;;;;;;;;10.79;62.47;95349.41;5039300;28;20335;-70
2023/07/16 04:48:50;;;;;;;;;;;;;;;10.79;62.35;95355.56;5038935;28;20065;-70
2023/07/16 04:51:16;;;;;;;;;;;;;;;11.51;59.75;95349.59;5039413;28;19957;-70
2023/07/16 04:53:41;;;;;;;;;;;;;;;11.58;59.89;95344.34;5047957;28;20007;-70
2023/07/16 04:56:13;;;;;;;;;;;;;;;11.04;61.52;95351.75;5040042;28;20019;-70
2023/07/16 04:58:38;;;;;;;;;;;;;;;11.29;60.45;95356.78;5032236;28;20375;-70
2023/07/16 05:01:03;;;;;;;;;;;;;;;10.71;62.94;95339.72;5039886;28;20047;-71
2023/07/16 05:03:28;;;;;;;;;;;;;;;11.18;61.13;95347.44;5039215;28;19957;-70
2023/07/16 05:05:54;;;;;;;;;;;;;;;10.81;62.12;95352.72;5055301;28;20168;-70
2023/07/16 05:08:19;;;;;;;;;;;;;;;10.48;62.82;95373.38;5039535;28;20102;-70
2023/07/16 05:10:45;;;;;;;;;;;;;;;10.62;63.14;95363.75;5055361;28;20046;-70
2023/07/16 05:13:10;;;;;;;;;;;;;;;10.70;62.18;95360.16;5038893;28;20273;-70
2023/07/16 05:15:35;;;;;;;;;;;;;;;10.59;61.72;95373.94;5039917;28;20031;-70
2023/07/16 05:18:00;;;;;;;;;;;;;;;10.36;62.91;95388.16;5037103;28;19963;-70
2023/07/16 05:20:26;;;;;;;;;;;;;;;10.62;62.83;95366.41;5039390;28;20043;-70
2023/07/16 05:22:51;;;;;;;;;;;;;;;10.69;62.17;95384.31;5053375;28;20104;-70
2023/07/16 05:25:16;;;;;;;;;;;;;;;10.82;61.56;95370.34;5038270;28;20002;-70
2023/07/16 05:27:41;;;;;;;;;;;;;;;11.35;59.75;95367.50;5052439;28;20175;-70
2023/07/16 05:30:07;;;;;;;;;;;;;;;10.54;61.49;95382.47;5039313;28;19935;-70
2023/07/16 05:32:32;;;;;;;;;;;;;;;11.61;58.56;95379.47;5038671;28;19998;-71
2023/07/16 05:34:57;;;;;;;;;;;;;;;11.72;58.56;95382.59;5038012;28;20472;-70
2023/07/16 05:37:23;;;;;;;;;;;;;;;11.75;58.44;95390.22;5038875;28;20039;-70
2023/07/16 05:39:48;;;;;;;;;;;;;;;10.96;60.19;95400.63;5038525;28;19920;-70
2023/07/16 05:42:13;;;;;;;;;;;;;;;11.69;58.31;95399.00;5037209;28;20020;-70
2023/07/16 05:44:38;;;;;;;;;;;;;;;11.63;57.47;95404.06;5037842;28;19956;-70
2023/07/16 05:47:04;;;;;;;;;;;;;;;11.27;57.59;95415.59;5038173;28;19993;-70
2023/07/16 05:49:29;;;;;;;;;;;;;;;10.73;59.16;95405.06;5053555;28;19967;-70
2023/07/16 05:51:55;;;;;;;;;;;;;;;11.23;57.89;95408.97;5038644;28;20314;-71
2023/07/16 05:54:21;;;;;;;;;;;;;;;11.32;57.65;95410.50;5032893;28;20245;-70
2023/07/16 05:56:46;;;;;;;;;;;;;;;11.41;56.69;95413.91;5037327;28;20146;-71
2023/07/16 05:59:12;;;;;;;;;;;;;;;11.48;56.96;95413.97;5036971;28;20002;-70
2023/07/16 06:01:37;;;;;;;;;;;;;;;11.64;55.98;95416.41;5038025;28;19932;-70
2023/07/16 06:04:02;;;;;;;;;;;;;;;11.37;56.48;95421.47;5037600;28;19991;-70
2023/07/16 06:06:28;;;;;;;;;;;;;;;11.39;56.09;95423.91;5053408;28;20000;-70
2023/07/16 06:08:53;;;;;;;;;;;;;;;11.05;57.00;95439.47;5053530;28;20540;-70
2023/07/16 06:11:18;;;;;;;;;;;;;;;11.44;55.73;95434.84;5036240;28;20015;-70
2023/07/16 06:13:43;;;;;;;;;;;;;;;11.85;54.54;95440.59;5038150;28;20049;-70
2023/07/16 06:16:09;;;;;;;;;;;;;;;11.82;54.30;95428.47;5038450;28;20459;-70
2023/07/16 06:18:34;;;;;;;;;;;;;;;11.24;55.42;95413.28;5038531;28;19953;-70
2023/07/16 06:20:59;;;;;;;;;;;;;;;11.31;56.27;95414.19;5037574;28;20004;-69
2023/07/16 06:23:25;;;;;;;;;;;;;;;11.22;55.23;95421.47;5038578;28;19937;-70
2023/07/16 06:25:53;;;;;;;;;;;;;;;11.12;54.87;95420.97;5051790;28;19957;-70
2023/07/16 06:28:18;;;;;;;;;;;;;;;12.00;53.35;95421.88;5035867;28;19931;-70
2023/07/16 06:30:44;;;;;;;;;;;;;;;11.15;54.71;95439.22;5036572;28;19933;-71
2023/07/16 06:33:09;;;;;;;;;;;;;;;11.66;53.04;95412.72;5037747;28;19949;-70
2023/07/16 06:35:35;;;;;;;;;;;;;;;11.95;52.91;95417.09;5038725;28;20345;-70
2023/07/16 06:38:00;;;;;;;;;;;;;;;11.58;54.15;95418.97;5035583;28;19967;-70
2023/07/16 06:40:25;;;;;;;;;;;;;;;11.93;52.31;95412.97;5037455;28;19951;-70
2023/07/16 06:42:51;;;;;;;;;;;;;;;11.60;52.84;95460.44;5037990;28;20053;-70
2023/07/16 06:45:19;;;;;;;;;;;;;;;11.21;53.71;95435.81;5038233;28;20109;-70
2023/07/16 06:47:44;;;;;;;;;;;;;;;10.72;54.76;95430.03;5037733;28;20028;-70
2023/07/16 06:50:09;;;;;;;;;;;;;;;11.26;52.69;95427.28;5038198;28;19934;-71
2023/07/16 06:52:34;;;;;;;;;;;;;;;10.94;54.49;95445.25;5032927;28;20293;-71
2023/07/16 06:55:00;;;;;;;;;;;;;;;10.81;54.04;95436.09;5037806;28;20435;-70
2023/07/16 06:57:25;;;;;;;;;;;;;;;10.99;53.32;95458.88;5038317;28;20071;-70
2023/07/16 06:59:50;;;;;;;;;;;;;;;11.42;52.06;95460.03;5037045;28;19932;-70
2023/07/16 07:02:16;;;;;;;;;;;;;;;11.39;52.62;95432.75;5042704;28;19928;-70
2023/07/16 07:04:41;;;;;;;;;;;;;;;11.67;52.24;95436.53;5040463;28;20505;-70
2023/07/16 07:07:06;;;;;;;;;;;;;;;11.69;51.04;95423.81;5042570;28;19971;-70
2023/07/16 07:09:32;;;;;;;;;;;;;;;11.04;52.19;95426.34;5040691;28;20533;-70
2023/07/16 07:11:57;;;;;;;;;;;;;;;11.32;51.49;95431.84;5040470;28;20417;-70
2023/07/16 07:14:22;;;;;;;;;;;;;;;11.36;51.00;95427.78;5039180;28;19925;-70
2023/07/16 07:16:47;;;;;;;;;;;;;;;12.00;50.23;95422.66;5037603;28;20008;-70
2023/07/16 07:19:12;;;;;;;;;;;;;;;11.80;49.44;95433.16;5037390;28;20011;-70
2023/07/16 07:21:38;;;;;;;;;;;;;;;12.21;48.73;95438.88;5041540;28;19925;-70
2023/07/16 07:24:03;;;;;;;;;;;;;;;11.75;49.49;95432.91;5042333;28;19924;-70
2023/07/16 07:26:28;;;;;;;;;;;;;;;11.66;48.92;95444.72;5042009;28;20451;-70
2023/07/16 07:28:53;;;;;;;;;;;;;;;11.77;49.54;95450.38;5041401;28;20488;-70
2023/07/16 07:31:19;;;;;;;;;;;;;;;12.37;48.65;95429.75;5040535;28;20188;-70
2023/07/16 07:33:44;;;;;;;;;;;;;;;12.34;46.92;95436.31;5041683;28;20268;-70
2023/07/16 07:36:09;;;;;;;;;;;;;;;12.22;47.41;95444.03;5041548;28;19980;-70
2023/07/16 07:38:34;;;;;;;;;;;;;;;12.30;47.37;95440.38;5041565;28;20038;-70
2023/07/16 07:41:00;;;;;;;;;;;;;;;12.32;47.87;95441.03;5041265;28;20180;-70
2023/07/16 07:43:25;;;;;;;;;;;;;;;12.34;48.10;95430.97;5041566;28;19965;-70
2023/07/16 07:45:50;;;;;;;;;;;;;;;12.32;48.09;95445.53;5055394;28;19921;-70
2023/07/16 07:48:15;;;;;;;;;;;;;;;12.26;47.94;95447.97;5040578;28;20123;-70
2023/07/16 07:50:41;;;;;;;;;;;;;;;12.60;47.05;95439.38;5041477;28;20026;-70
2023/07/16 07:53:06;;;;;;;;;;;;;;;12.30;47.25;95443.06;5041091;28;20030;-70
2023/07/16 07:55:31;;;;;;;;;;;;;;;12.66;46.61;95443.94;5040450;28;20652;-70
2023/07/16 07:57:56;;;;;;;;;;;;;;;12.63;48.26;95437.16;5040144;28;20151;-70
2023/07/16 08:00:22;;;;;;;;;;;;;;;12.75;46.15;95436.59;5037160;28;20026;-70
2023/07/16 08:02:47;;;;;;;;;;;;;;;12.51;46.08;95452.06;5040343;28;19924;-70
2023/07/16 08:05:12;;;;;;;;;;;;;;;12.33;45.36;95450.69;5042553;28;20437;-70
2023/07/16 08:07:38;;;;;;;;;;;;;;;12.28;45.88;95445.13;5041253;28;20161;-70
2023/07/16 08:10:03;;;;;;;;;;;;;;;12.23;44.60;95488.38;5040374;28;19945;-70
2023/07/16 08:12:29;;;;;;;;;;;;;;;12.34;45.29;95464.88;5040256;28;19952;-70
2023/07/16 08:14:55;;;;;;;;;;;;;;;12.31;44.41;95454.56;5040624;28;20314;-70
2023/07/16 08:17:20;;;;;;;;;;;;;;;12.52;44.73;95451.03;5039889;28;19932;-70
2023/07/16 08:19:45;;;;;;;;;;;;;;;12.89;45.23;95449.00;5040723;28;19936;-70
2023/07/16 08:22:11;;;;;;;;;;;;;;;13.22;44.63;95460.91;5040292;28;19923;-70
2023/07/16 08:24:36;;;;;;;;;;;;;;;13.65;42.93;95459.84;5040013;28;19923;-70
2023/07/16 08:27:02;;;;;;;;;;;;;;;13.25;42.35;95470.38;5039288;28;19916;-71
2023/07/16 08:29:27;;;;;;;;;;;;;;;12.89;43.49;95457.00;5037634;28;20069;-70
2023/07/16 08:31:52;;;;;;;;;;;;;;;13.42;43.01;95460.16;5040296;28;20336;-70
2023/07/16 08:34:18;;;;;;;;;;;;;;;12.99;43.30;95467.38;5040329;28;19909;-70
2023/07/16 08:36:44;;;;;;;;;;;;;;;12.87;43.72;95477.78;5038990;28;19920;-70
2023/07/16 08:39:09;;;;;;;;;;;;;;;13.08;42.39;95470.72;5039401;28;19920;-70
2023/07/16 08:41:34;;;;;;;;;;;;;;;13.01;42.56;95465.34;5040128;28;20168;-70
2023/07/16 08:43:59;;;;;;;;;;;;;;;13.22;42.28;95484.16;5054354;28;20596;-70
2023/07/16 08:46:25;;;;;;;;;;;;;;;13.04;42.67;95472.13;5039782;28;19973;-71
2023/07/16 08:48:50;;;;;;;;;;;;;;;13.22;41.33;95476.97;5056001;28;19972;-71
2023/07/16 08:51:16;;;;;;;;;;;;;;;12.84;42.94;95474.66;5052003;28;20002;-70
2023/07/16 08:53:41;;;;;;;;;;;;;;;13.17;41.16;95474.06;5054907;28;19921;-70
2023/07/16 08:56:06;;;;;;;;;;;;;;;13.91;40.44;95492.25;5040667;28;19969;-71
2023/07/16 08:58:31;;;;;;;;;;;;;;;13.73;40.26;95480.22;5038321;28;19917;-70
2023/07/16 09:00:57;;;;;;;;;;;;;;;14.16;38.63;95494.34;5053774;28;19952;-71
2023/07/16 09:03:22;;;;;;;;;;;;;;;13.95;40.78;95491.63;5038734;28;19921;-70
2023/07/16 09:05:47;;;;;;;;;;;;;;;13.65;39.83;95496.47;5038666;28;19979;-71
2023/07/16 09:08:13;;;;;;;;;;;;;;;13.24;40.81;95495.47;5040295;28;19952;-70
2023/07/16 09:10:39;;;;;;;;;;;;;;;14.02;39.32;95475.59;5040475;28;20104;-70
2023/07/16 09:13:05;;;;;;;;;;;;;;;13.77;40.04;95507.41;5054118;28;19946;-71
2023/07/16 09:15:30;;;;;;;;;;;;;;;14.19;38.66;95505.50;5039304;28;19924;-70
2023/07/16 09:17:55;;;;;;;;;;;;;;;14.39;39.10;95496.66;5037809;28;20024;-71
2023/07/16 09:20:23;;;;;;;;;;;;;;;13.93;38.75;95504.41;5038469;28;19925;-70
2023/07/16 09:22:48;;;;;;;;;;;;;;;14.62;38.98;95499.94;5054642;28;20654;-70
2023/07/16 09:25:13;;;;;;;;;;;;;;;14.81;38.77;95490.25;5054705;28;20190;-69
2023/07/16 09:27:39;;;;;;;;;;;;;;;15.03;38.25;95506.13;5039180;28;19971;-70
2023/07/16 09:30:05;;;;;;;;;;;;;;;14.29;37.97;95509.63;5039510;28;20377;-70
2023/07/16 09:32:34;;;;;;;;;;;;;;;13.78;38.10;95517.09;5039148;28;20029;-70
2023/07/16 09:34:59;;;;;;;;;;;;;;;14.81;36.57;95511.69;5039959;28;19921;-70
2023/07/16 09:37:24;;;;;;;;;;;;;;;14.24;36.96;95520.94;5038750;28;20336;-70
2023/07/16 09:39:49;;;;;;;;;;;;;;;14.46;36.04;95502.81;5054499;28;19965;-70
2023/07/16 09:42:15;;;;;;;;;;;;;;;14.72;36.63;95516.41;5052998;28;19924;-70
2023/07/16 09:44:41;;;;;;;;;;;;;;;14.57;36.49;95493.34;5038234;28;19928;-70
2023/07/16 09:47:07;;;;;;;;;;;;;;;15.83;35.53;95496.16;5038810;28;20436;-71
2023/07/16 09:49:32;;;;;;;;;;;;;;;15.82;35.44;95503.41;5054271;28;20028;-70
2023/07/16 09:51:57;;;;;;;;;;;;;;;16.00;34.48;95521.47;5038748;28;19951;-70
2023/07/16 09:54:23;;;;;;;;;;;;;;;16.17;34.69;95502.16;5053244;28;20246;-70
2023/07/16 09:56:49;;;;;;;;;;;;;;;16.08;35.09;95509.63;5037353;28;19925;-70
2023/07/16 09:59:15;;;;;;;;;;;;;;;15.75;33.68;95508.78;5051941;28;19951;-70
2023/07/16 10:01:41;;;;;;;;;;;;;;;15.86;32.76;95515.34;5054112;28;19944;-70
2023/07/16 10:04:10;;;;;;;;;;;;;;;15.01;35.36;95548.38;5036106;28;20253;-70
2023/07/16 10:06:35;;;;;;;;;;;;;;;15.74;34.29;95509.03;5037865;28;19975;-71
2023/07/16 10:09:01;;;;;;;;;;;;;;;15.86;33.70;95519.88;5037248;28;19921;-70
2023/07/16 10:11:27;;;;;;;;;;;;;;;15.31;33.53;95495.13;5054014;28;19921;-69
2023/07/16 10:13:52;;;;;;;;;;;;;;;14.89;34.50;95518.72;5039180;28;20446;-69
2023/07/16 10:16:24;;;;;;;;;;;;;;;15.00;36.52;95520.75;5038314;28;20006;-68
2023/07/16 10:18:55;;;;;;;;;;;;;;;15.34;34.03;95510.75;5052896;28;19962;-69
2023/07/16 10:21:24;;;;;;;;;;;;;;;15.87;33.23;95500.06;5036771;28;19920;-69
2023/07/16 10:23:56;;;;;;;;;;;;;;;15.13;34.45;95501.13;5038348;28;19924;-69
2023/07/16 10:26:25;;;;;;;;;;;;;;;15.80;33.71;95531.47;5036492;28;20386;-69
2023/07/16 10:28:50;;;;;;;;;;;;;;;16.51;32.30;95515.38;5036576;28;20106;-69
2023/07/16 10:31:22;;;;;;;;;;;;;;;17.62;31.93;95507.72;5038995;28;19925;-69
2023/07/16 10:34:06;;;;;;;;;;;;;;;17.46;31.42;95511.81;5035825;28;19924;-69
2023/07/16 10:36:40;;;;;;;;;;;;;;;16.70;32.28;95513.59;5051088;28;19960;-69
2023/07/16 10:39:06;;;;;;;;;;;;;;;16.33;32.47;95513.41;5042856;28;20439;-69
2023/07/16 10:41:32;;;;;;;;;;;;;;;16.27;32.28;95531.22;5043577;28;19924;-69
2023/07/16 10:43:57;;;;;;;;;;;;;;;16.66;31.93;95539.25;5043964;28;19917;-68
2023/07/16 10:46:23;;;;;;;;;;;;;;;17.13;32.43;95524.56;5057251;28;20343;-68
2023/07/16 10:48:48;;;;;;;;;;;;;;;17.43;30.98;95526.53;5042384;28;19932;-68
2023/07/16 10:51:15;;;;;;;;;;;;;;;17.46;30.85;95526.09;5042088;28;19932;-69
2023/07/16 10:53:41;;;;;;;;;;;;;;;16.52;31.48;95523.22;5039838;28;19924;-68
2023/07/16 10:56:06;;;;;;;;;;;;;;;17.53;31.39;95529.53;5037777;28;19920;-69
2023/07/16 10:58:31;;;;;;;;;;;;;;;16.40;31.27;95541.09;5040537;28;20079;-68
2023/07/16 11:00:56;;;;;;;;;;;;;;;16.00;31.02;95532.22;5041014;28;20405;-68
2023/07/16 11:03:22;;;;;;;;;;;;;;;16.51;30.89;95553.00;5041688;28;19944;-69
2023/07/16 11:05:47;;;;;;;;;;;;;;;16.59;32.55;95533.09;5058416;28;19963;-69
2023/07/16 11:08:21;;;;;;;;;;;;;;;17.32;31.17;95533.50;5035183;28;20566;-69
2023/07/16 11:10:52;;;;;;;;;;;;;;;16.38;31.90;95545.84;5042224;28;20193;-69
2023/07/16 11:13:17;;;;;;;;;;;;;;;16.25;31.67;95544.06;5040881;28;20233;-69
2023/07/16 11:15:42;;;;;;;;;;;;;;;17.12;31.45;95541.75;5040199;28;20107;-69
2023/07/16 11:18:07;;;;;;;;;;;;;;;17.06;31.59;95534.56;5039535;28;21126;-70
2023/07/16 11:20:33;;;;;;;;;;;;;;;17.95;30.96;95532.59;5038323;28;19925;-69
2023/07/16 11:22:59;;;;;;;;;;;;;;;18.10;29.56;95535.72;5041017;28;20019;-69
2023/07/16 11:25:25;;;;;;;;;;;;;;;18.40;29.41;95542.97;5041450;28;19952;-69
2023/07/16 11:27:50;;;;;;;;;;;;;;;17.38;31.29;95532.59;5039097;28;19998;-69
2023/07/16 11:30:15;;;;;;;;;;;;;;;18.51;29.11;95522.47;5039989;28;20401;-69
2023/07/16 11:32:45;;;;;;;;;;;;;;;18.97;29.10;95532.75;5039121;28;19972;-70
2023/07/16 11:35:16;;;;;;;;;;;;;;;18.48;28.63;95552.56;5038595;28;20262;-69
2023/07/16 11:37:42;;;;;;;;;;;;;;;17.40;29.27;95541.28;5040218;28;19933;-70
2023/07/16 11:40:08;;;;;;;;;;;;;;;18.31;29.36;95538.94;5041449;28;19975;-70
2023/07/16 11:42:34;;;;;;;;;;;;;;;18.27;29.34;95530.50;5040342;28;19925;-69
2023/07/16 11:45:00;;;;;;;;;;;;;;;16.85;31.51;95525.84;5039588;28;19928;-69
2023/07/16 11:47:25;;;;;;;;;;;;;;;18.34;29.92;95537.66;5039382;28;20416;-69
2023/07/16 11:49:50;;;;;;;;;;;;;;;18.56;29.15;95540.66;5037346;28;19927;-69
2023/07/16 11:52:26;;;;;;;;;;;;;;;17.80;29.90;95544.53;5039796;28;19979;-69
2023/07/16 11:54:54;;;;;;;;;;;;;;;18.41;29.17;95555.38;5041368;28;20003;-69
2023/07/16 11:57:19;;;;;;;;;;;;;;;18.92;28.45;95544.25;5037549;28;20413;-69
2023/07/16 11:59:45;;;;;;;;;;;;;;;18.92;28.48;95540.72;5038075;28;20129;-69
2023/07/16 12:02:10;;;;;;;;;;;;;;;18.63;28.53;95540.56;5040055;28;20155;-69
2023/07/16 12:04:35;;;;;;;;;;;;;;;17.94;28.83;95557.88;5053848;28;19948;-68
2023/07/16 12:07:01;;;;;;;;;;;;;;;18.63;28.78;95535.97;5037353;28;20027;-68
2023/07/16 12:09:26;;;;;;;;;;;;;;;18.58;28.16;95567.38;5038484;28;19932;-69
2023/07/16 12:11:51;;;;;;;;;;;;;;;18.31;27.55;95549.72;5037963;28;19952;-68
2023/07/16 12:14:16;;;;;;;;;;;;;;;18.41;29.60;95533.81;5040162;28;19921;-69
2023/07/16 12:16:41;;;;;;;;;;;;;;;18.67;27.69;95557.94;5040029;28;19971;-69
2023/07/16 12:19:08;;;;;;;;;;;;;;;18.26;27.19;95541.50;5038142;28;20023;-68
2023/07/16 12:21:33;;;;;;;;;;;;;;;18.73;27.06;95527.31;5035969;28;20401;-69
2023/07/16 12:23:58;;;;;;;;;;;;;;;18.15;27.98;95537.72;5040167;28;20028;-68
2023/07/16 12:26:23;;;;;;;;;;;;;;;17.85;28.25;95528.56;5038841;28;20028;-68
2023/07/16 12:28:49;;;;;;;;;;;;;;;17.91;28.12;95545.69;5036182;28;20006;-68
2023/07/16 12:31:15;;;;;;;;;;;;;;;18.78;27.00;95546.34;5038527;28;19927;-68
2023/07/16 12:33:40;;;;;;;;;;;;;;;18.37;28.70;95539.88;5038302;28;19924;-68
2023/07/16 12:36:05;;;;;;;;;;;;;;;17.56;29.81;95532.81;5038954;28;20444;-68
2023/07/16 12:38:30;;;;;;;;;;;;;;;19.20;27.15;95531.91;5038610;28;19947;-68
2023/07/16 12:40:56;;;;;;;;;;;;;;;19.26;26.95;95540.13;5040385;28;19938;-68